Time;durP1;ratioP1;P1;durP2;ratioP2;P2;SDS_P1;SDS_P2;PMS_P1;PMS_P2;Temp;Humidity;BMP_temperature;BMP_pressure;BME280_temperature;BME280_humidity;BME280_pressure;Samples;Min_cycle;Max_cycle;Signal;HPM_P1;HPM_P2
2021/05/05 00:01:00;;;;;;;3.78;1.40;;;;;;;;;;5032333;28;20175;-49
2021/05/05 00:03:26;;;;;;;4.15;1.60;;;;;;;;;;5032050;28;20083;-52
2021/05/05 00:05:53;;;;;;;3.88;1.33;;;;;;;;;;5032388;28;20095;-50
2021/05/05 00:08:19;;;;;;;3.38;1.58;;;;;;;;;;5031869;28;20040;-50
2021/05/05 00:10:46;;;;;;;3.38;1.27;;;;;;;;;;5032088;28;20037;-50
2021/05/05 00:13:12;;;;;;;3.97;1.60;;;;;;;;;;5031957;28;20573;-50
2021/05/05 00:15:38;;;;;;;4.88;1.90;;;;;;;;;;5031990;28;20524;-51
2021/05/05 00:18:04;;;;;;;2.95;1.25;;;;;;;;;;5032101;28;20438;-52
2021/05/05 00:20:31;;;;;;;6.30;1.70;;;;;;;;;;5032068;28;20112;-54
2021/05/05 00:22:57;;;;;;;4.43;1.40;;;;;;;;;;5031700;28;20029;-51
2021/05/05 00:25:23;;;;;;;4.60;1.65;;;;;;;;;;5032228;28;20076;-51
2021/05/05 00:27:50;;;;;;;5.47;1.90;;;;;;;;;;5032217;28;20087;-50
2021/05/05 00:30:16;;;;;;;3.13;1.30;;;;;;;;;;5031804;28;20037;-51
2021/05/05 00:32:42;;;;;;;4.30;1.60;;;;;;;;;;5031779;28;20078;-50
2021/05/05 00:35:09;;;;;;;4.35;1.58;;;;;;;;;;5031752;28;20504;-50
2021/05/05 00:37:36;;;;;;;5.22;1.60;;;;;;;;;;5031738;28;20088;-51
2021/05/05 00:40:02;;;;;;;4.90;1.70;;;;;;;;;;5031887;28;20018;-52
2021/05/05 00:42:28;;;;;;;6.00;1.52;;;;;;;;;;5031732;28;20036;-51
2021/05/05 00:45:03;;;;;;;4.57;1.42;;;;;;;;;;5031990;28;20034;-52
2021/05/05 00:47:29;;;;;;;4.47;1.70;;;;;;;;;;5032038;28;20105;-50
2021/05/05 00:49:55;;;;;;;4.55;1.50;;;;;;;;;;5035493;28;20037;-50
2021/05/05 00:52:22;;;;;;;4.95;1.20;;;;;;;;;;5035480;28;20029;-50
2021/05/05 00:54:48;;;;;;;3.28;1.17;;;;;;;;;;5034861;28;20069;-49
2021/05/05 00:57:14;;;;;;;5.88;1.85;;;;;;;;;;5035034;28;20044;-52
2021/05/05 00:59:41;;;;;;;2.75;1.27;;;;;;;;;;5035464;28;20044;-50
2021/05/05 01:02:07;;;;;;;4.10;1.65;;;;;;;;;;5300174;22;20064;-49
2021/05/05 01:04:33;;;;;;;4.47;1.88;;;;;;;;;;5054208;28;20086;-52
2021/05/05 01:07:00;;;;;;;2.88;1.17;;;;;;;;;;5054212;28;20426;-49
2021/05/05 01:09:26;;;;;;;3.97;1.67;;;;;;;;;;5054454;28;20158;-48
2021/05/05 01:11:53;;;;;;;4.22;1.52;;;;;;;;;;5054181;28;20552;-49
2021/05/05 01:14:19;;;;;;;5.28;1.58;;;;;;;;;;5036273;28;20090;-50
2021/05/05 01:16:45;;;;;;;4.50;1.90;;;;;;;;;;5054010;28;20108;-50
2021/05/05 01:19:11;;;;;;;3.00;1.30;;;;;;;;;;5054084;28;20032;-50
2021/05/05 01:21:37;;;;;;;3.80;1.83;;;;;;;;;;5053948;28;20108;-50
2021/05/05 01:24:05;;;;;;;4.13;1.48;;;;;;;;;;5054192;28;20423;-49
2021/05/05 01:26:31;;;;;;;6.80;2.58;;;;;;;;;;5053884;28;20057;-48
2021/05/05 01:29:00;;;;;;;5.53;2.05;;;;;;;;;;5053851;28;20067;-51
2021/05/05 01:31:26;;;;;;;4.00;2.15;;;;;;;;;;5053732;28;20036;-49
2021/05/05 01:33:52;;;;;;;6.63;2.10;;;;;;;;;;5053650;28;20025;-48
2021/05/05 01:36:19;;;;;;;5.63;2.30;;;;;;;;;;5054052;28;20017;-52
2021/05/05 01:38:46;;;;;;;7.38;2.25;;;;;;;;;;5053796;28;20048;-50
2021/05/05 01:41:12;;;;;;;4.10;2.00;;;;;;;;;;5053888;28;20036;-49
2021/05/05 01:43:38;;;;;;;4.93;2.10;;;;;;;;;;5053877;28;20384;-49
2021/05/05 01:46:04;;;;;;;7.60;2.42;;;;;;;;;;5053567;28;20021;-50
2021/05/05 01:48:31;;;;;;;5.72;1.90;;;;;;;;;;5053451;28;20032;-48
2021/05/05 01:50:57;;;;;;;5.40;2.15;;;;;;;;;;5053489;28;20029;-50
2021/05/05 01:53:23;;;;;;;3.90;1.95;;;;;;;;;;5053637;28;20427;-49
2021/05/05 01:55:50;;;;;;;5.65;2.05;;;;;;;;;;5053570;28;20496;-53
2021/05/05 01:58:16;;;;;;;5.55;1.90;;;;;;;;;;5053456;28;20036;-49
2021/05/05 02:00:42;;;;;;;6.53;2.10;;;;;;;;;;5052551;28;20033;-52
2021/05/05 02:03:09;;;;;;;3.72;2.00;;;;;;;;;;5052858;28;20053;-49
2021/05/05 02:05:35;;;;;;;6.88;2.70;;;;;;;;;;5053180;28;20530;-49
2021/05/05 02:08:02;;;;;;;6.05;2.20;;;;;;;;;;5053180;28;20036;-48
2021/05/05 02:10:28;;;;;;;4.22;2.00;;;;;;;;;;5053061;28;20507;-50
2021/05/05 02:12:54;;;;;;;5.57;2.40;;;;;;;;;;5053081;28;20032;-49
2021/05/05 02:15:22;;;;;;;6.25;2.65;;;;;;;;;;5053159;28;20032;-48
2021/05/05 02:17:49;;;;;;;8.50;2.03;;;;;;;;;;5052722;28;20123;-51
2021/05/05 02:20:17;;;;;;;4.38;1.90;;;;;;;;;;5053128;28;20056;-50
2021/05/05 02:22:43;;;;;;;9.07;2.85;;;;;;;;;;5034958;28;20395;-49
2021/05/05 02:25:10;;;;;;;4.20;2.38;;;;;;;;;;5052815;28;20602;-51
2021/05/05 02:27:36;;;;;;;6.65;2.10;;;;;;;;;;5052758;28;20025;-49
2021/05/05 02:30:06;;;;;;;5.18;2.60;;;;;;;;;;5052737;28;20079;-49
2021/05/05 02:32:33;;;;;;;5.05;2.33;;;;;;;;;;5052541;28;20033;-50
2021/05/05 02:34:59;;;;;;;6.18;2.15;;;;;;;;;;5052585;28;20017;-49
2021/05/05 02:37:25;;;;;;;7.10;2.20;;;;;;;;;;5052460;28;20037;-50
2021/05/05 02:39:52;;;;;;;9.00;2.45;;;;;;;;;;5052663;28;20056;-50
2021/05/05 02:42:18;;;;;;;8.95;2.65;;;;;;;;;;5052875;28;20025;-49
2021/05/05 02:44:48;;;;;;;7.03;2.72;;;;;;;;;;5052421;28;20025;-48
2021/05/05 02:47:14;;;;;;;5.85;2.17;;;;;;;;;;5052289;28;20065;-49
2021/05/05 02:49:40;;;;;;;5.10;2.40;;;;;;;;;;5052157;28;20025;-49
2021/05/05 02:52:06;;;;;;;5.72;2.45;;;;;;;;;;5052256;28;20029;-49
2021/05/05 02:54:33;;;;;;;4.70;2.50;;;;;;;;;;5052664;28;20059;-48
2021/05/05 02:56:59;;;;;;;8.15;2.45;;;;;;;;;;5052162;28;20108;-48
2021/05/05 02:59:25;;;;;;;8.95;2.67;;;;;;;;;;5052185;28;20056;-48
2021/05/05 03:01:52;;;;;;;10.25;3.00;;;;;;;;;;5052549;28;20029;-50
2021/05/05 03:04:19;;;;;;;11.95;3.42;;;;;;;;;;5052367;28;20045;-48
2021/05/05 03:06:45;;;;;;;8.20;2.95;;;;;;;;;;5052079;28;20029;-50
2021/05/05 03:09:12;;;;;;;8.63;3.03;;;;;;;;;;5051962;28;20112;-50
2021/05/05 03:11:38;;;;;;;9.52;2.63;;;;;;;;;;5051772;28;20090;-48
2021/05/05 03:14:04;;;;;;;9.90;2.78;;;;;;;;;;5052155;28;20051;-49
2021/05/05 03:16:30;;;;;;;5.65;2.58;;;;;;;;;;5051783;28;20059;-51
2021/05/05 03:18:56;;;;;;;6.65;2.85;;;;;;;;;;5051842;28;20545;-48
2021/05/05 03:21:23;;;;;;;8.32;3.15;;;;;;;;;;5052233;28;20025;-48
2021/05/05 03:23:49;;;;;;;6.18;2.60;;;;;;;;;;5051989;28;20029;-50
2021/05/05 03:26:15;;;;;;;6.72;2.67;;;;;;;;;;5051710;28;20025;-49
2021/05/05 03:28:41;;;;;;;7.70;3.03;;;;;;;;;;5051902;28;20021;-50
2021/05/05 03:31:07;;;;;;;9.30;3.85;;;;;;;;;;5051688;28;20036;-48
2021/05/05 03:33:34;;;;;;;11.45;3.20;;;;;;;;;;5051480;28;20036;-50
2021/05/05 03:36:00;;;;;;;8.50;2.92;;;;;;;;;;5051802;28;20147;-48
2021/05/05 03:38:26;;;;;;;7.32;2.65;;;;;;;;;;5051563;28;20029;-50
2021/05/05 03:40:52;;;;;;;7.50;2.72;;;;;;;;;;5051707;28;20025;-48
2021/05/05 03:43:19;;;;;;;7.05;3.15;;;;;;;;;;5051452;28;20021;-50
2021/05/05 03:45:45;;;;;;;9.57;2.83;;;;;;;;;;5051645;28;20087;-50
2021/05/05 03:48:11;;;;;;;8.32;2.90;;;;;;;;;;5051317;28;20025;-48
2021/05/05 03:50:38;;;;;;;7.63;3.10;;;;;;;;;;5051620;28;20415;-49
2021/05/05 03:53:04;;;;;;;6.63;2.50;;;;;;;;;;5051376;28;20025;-50
2021/05/05 03:55:31;;;;;;;5.80;2.90;;;;;;;;;;5051375;28;20029;-48
2021/05/05 03:57:57;;;;;;;7.18;3.33;;;;;;;;;;5051359;28;20039;-48
2021/05/05 04:00:23;;;;;;;11.25;3.65;;;;;;;;;;5051489;28;20017;-49
2021/05/05 04:02:49;;;;;;;8.25;3.17;;;;;;;;;;5051017;28;20076;-48
2021/05/05 04:05:16;;;;;;;7.82;3.03;;;;;;;;;;5051115;28;20044;-48
2021/05/05 04:07:42;;;;;;;7.88;3.42;;;;;;;;;;5051157;28;20032;-51
2021/05/05 04:10:09;;;;;;;6.18;2.90;;;;;;;;;;5051189;28;20587;-50
2021/05/05 04:12:35;;;;;;;9.05;3.10;;;;;;;;;;5051236;28;20036;-48
2021/05/05 04:15:01;;;;;;;7.90;2.78;;;;;;;;;;5051154;28;20033;-49
2021/05/05 04:17:27;;;;;;;8.18;2.95;;;;;;;;;;5051178;28;20118;-49
2021/05/05 04:19:55;;;;;;;5.55;2.22;;;;;;;;;;5051378;28;20021;-49
2021/05/05 04:22:21;;;;;;;6.72;2.53;;;;;;;;;;5051471;28;20029;-48
2021/05/05 04:24:47;;;;;;;5.32;2.38;;;;;;;;;;5037196;28;20033;-48
2021/05/05 04:27:14;;;;;;;7.30;2.80;;;;;;;;;;5055064;28;20017;-49
2021/05/05 04:29:40;;;;;;;8.30;3.00;;;;;;;;;;5037162;28;20083;-49
2021/05/05 04:32:07;;;;;;;6.03;2.70;;;;;;;;;;5054945;28;20420;-48
2021/05/05 04:34:33;;;;;;;7.60;2.83;;;;;;;;;;5055020;28;20021;-49
2021/05/05 04:37:00;;;;;;;6.35;2.45;;;;;;;;;;5054971;28;20021;-49
2021/05/05 04:39:26;;;;;;;5.00;2.28;;;;;;;;;;5054916;28;20539;-48
2021/05/05 04:41:52;;;;;;;5.05;2.60;;;;;;;;;;5054802;28;20013;-48
2021/05/05 04:44:18;;;;;;;5.45;3.08;;;;;;;;;;5054696;28;20028;-49
2021/05/05 04:46:44;;;;;;;5.40;2.65;;;;;;;;;;5055043;28;20036;-49
2021/05/05 04:49:11;;;;;;;5.05;2.67;;;;;;;;;;5054114;28;20033;-49
2021/05/05 04:51:38;;;;;;;5.93;2.22;;;;;;;;;;5054390;28;20040;-50
2021/05/05 04:54:06;;;;;;;7.57;2.88;;;;;;;;;;5055242;28;20033;-49
2021/05/05 04:56:33;;;;;;;5.70;2.10;;;;;;;;;;5055477;28;20095;-48
2021/05/05 04:58:59;;;;;;;5.57;2.67;;;;;;;;;;5055150;28;20037;-48
2021/05/05 05:01:25;;;;;;;4.82;2.30;;;;;;;;;;5055400;28;20025;-49
2021/05/05 05:03:51;;;;;;;6.78;2.40;;;;;;;;;;5054750;28;20049;-50
2021/05/05 05:06:17;;;;;;;10.10;2.40;;;;;;;;;;5054912;28;20498;-50
2021/05/05 05:08:43;;;;;;;7.18;2.30;;;;;;;;;;5054428;28;20025;-49
2021/05/05 05:11:09;;;;;;;6.88;2.15;;;;;;;;;;5054816;28;20032;-48
2021/05/05 05:13:35;;;;;;;7.18;2.45;;;;;;;;;;5055022;28;20025;-50
2021/05/05 05:16:01;;;;;;;5.18;2.20;;;;;;;;;;5054917;28;20120;-53
2021/05/05 05:18:28;;;;;;;4.93;2.55;;;;;;;;;;5054857;28;20064;-50
2021/05/05 05:20:54;;;;;;;7.45;2.67;;;;;;;;;;5054866;28;20535;-51
2021/05/05 05:23:20;;;;;;;8.50;2.42;;;;;;;;;;5054576;28;20028;-50
2021/05/05 05:25:46;;;;;;;7.47;2.50;;;;;;;;;;5054401;28;20108;-49
2021/05/05 05:28:12;;;;;;;7.82;2.60;;;;;;;;;;5053766;28;20480;-48
2021/05/05 05:30:38;;;;;;;8.98;2.70;;;;;;;;;;5053861;28;20025;-49
2021/05/05 05:33:04;;;;;;;7.00;2.55;;;;;;;;;;5054291;28;20033;-49
2021/05/05 05:35:30;;;;;;;6.47;1.90;;;;;;;;;;5053989;28;20024;-49
2021/05/05 05:37:56;;;;;;;6.60;2.25;;;;;;;;;;5053915;28;20037;-48
2021/05/05 05:40:23;;;;;;;6.47;2.13;;;;;;;;;;5053930;28;20345;-50
2021/05/05 05:42:49;;;;;;;9.68;2.35;;;;;;;;;;5053701;28;20364;-50
2021/05/05 05:45:16;;;;;;;7.20;1.80;;;;;;;;;;5054022;28;20017;-49
2021/05/05 05:47:45;;;;;;;4.85;1.90;;;;;;;;;;5053814;28;20064;-49
2021/05/05 05:50:12;;;;;;;3.55;1.85;;;;;;;;;;5054201;28;20403;-50
2021/05/05 05:52:38;;;;;;;6.25;2.58;;;;;;;;;;5054091;28;20033;-51
2021/05/05 05:55:06;;;;;;;4.93;1.70;;;;;;;;;;5054338;28;20048;-53
2021/05/05 05:57:32;;;;;;;5.60;1.70;;;;;;;;;;5054117;28;20048;-48
2021/05/05 05:59:58;;;;;;;9.88;1.92;;;;;;;;;;5053953;28;20357;-50
2021/05/05 06:02:24;;;;;;;4.50;1.45;;;;;;;;;;5046927;28;20036;-52
2021/05/05 06:04:50;;;;;;;4.53;1.92;;;;;;;;;;5053957;28;20021;-50
2021/05/05 06:07:17;;;;;;;7.95;1.58;;;;;;;;;;5054028;28;20356;-48
2021/05/05 06:09:43;;;;;;;9.40;1.98;;;;;;;;;;5053967;28;20053;-50
2021/05/05 06:12:09;;;;;;;7.63;2.20;;;;;;;;;;5053418;28;20456;-50
2021/05/05 06:14:35;;;;;;;7.45;1.90;;;;;;;;;;5053073;28;20071;-50
2021/05/05 06:17:03;;;;;;;4.97;2.15;;;;;;;;;;5053655;28;20418;-48
2021/05/05 06:19:29;;;;;;;4.60;2.13;;;;;;;;;;5053674;28;20033;-51
2021/05/05 06:21:55;;;;;;;3.88;1.80;;;;;;;;;;5053638;28;20040;-49
2021/05/05 06:24:21;;;;;;;6.60;2.58;;;;;;;;;;5049864;28;20044;-48
2021/05/05 06:26:47;;;;;;;6.88;3.03;;;;;;;;;;5052250;28;20032;-51
2021/05/05 06:29:14;;;;;;;5.72;2.40;;;;;;;;;;5034762;28;20087;-52
2021/05/05 06:31:40;;;;;;;7.90;2.85;;;;;;;;;;5047177;28;20495;-50
2021/05/05 06:34:07;;;;;;;4.88;2.10;;;;;;;;;;5042252;28;20049;-55
2021/05/05 06:36:33;;;;;;;4.75;1.67;;;;;;;;;;5039985;28;20017;-56
2021/05/05 06:39:00;;;;;;;8.95;2.10;;;;;;;;;;5041642;28;20082;-49
2021/05/05 06:41:26;;;;;;;4.35;1.98;;;;;;;;;;5040432;28;20049;-50
2021/05/05 06:43:52;;;;;;;4.65;1.63;;;;;;;;;;5040449;28;20060;-52
2021/05/05 06:46:22;;;;;;;4.97;2.20;;;;;;;;;;5042643;28;20028;-52
2021/05/05 06:48:48;;;;;;;6.18;2.40;;;;;;;;;;5026868;28;20021;-55
2021/05/05 06:51:14;;;;;;;6.68;2.17;;;;;;;;;;5048628;28;20035;-55
2021/05/05 06:53:41;;;;;;;4.93;2.08;;;;;;;;;;5034371;28;20060;-51
2021/05/05 06:56:07;;;;;;;4.55;1.88;;;;;;;;;;5051667;28;20137;-51
2021/05/05 06:58:33;;;;;;;5.40;1.70;;;;;;;;;;5051741;28;20029;-49
2021/05/05 07:00:59;;;;;;;5.00;1.67;;;;;;;;;;5052077;28;20036;-49
2021/05/05 07:03:25;;;;;;;3.03;1.50;;;;;;;;;;5051807;28;20072;-53
2021/05/05 07:05:51;;;;;;;4.80;1.50;;;;;;;;;;5051802;28;20029;-50
2021/05/05 07:08:17;;;;;;;3.47;1.42;;;;;;;;;;5051457;28;20033;-51
2021/05/05 07:10:43;;;;;;;6.95;3.40;;;;;;;;;;5051268;28;20032;-52
2021/05/05 07:13:09;;;;;;;5.68;1.73;;;;;;;;;;5051760;28;20036;-48
2021/05/05 07:15:36;;;;;;;5.22;1.70;;;;;;;;;;5051771;28;20103;-49
2021/05/05 07:18:02;;;;;;;3.83;1.50;;;;;;;;;;5051998;28;20029;-50
2021/05/05 07:20:28;;;;;;;4.75;1.50;;;;;;;;;;5051933;28;20072;-47
2021/05/05 07:22:54;;;;;;;5.30;1.50;;;;;;;;;;5052271;28;20082;-49
2021/05/05 07:25:20;;;;;;;8.57;1.60;;;;;;;;;;5052612;28;20021;-50
2021/05/05 07:27:46;;;;;;;6.13;1.70;;;;;;;;;;5052342;28;20028;-49
2021/05/05 07:30:13;;;;;;;4.38;1.58;;;;;;;;;;5052564;28;20024;-48
2021/05/05 07:32:40;;;;;;;3.83;1.50;;;;;;;;;;5052178;28;20055;-49
2021/05/05 07:35:09;;;;;;;4.40;1.77;;;;;;;;;;5047137;28;20079;-48
2021/05/05 07:48:11;;;;;;;4.33;1.90;;;;;;;;;;5040717;28;20112;-52
2021/05/05 07:50:38;;;;;;;6.85;1.90;;;;;;;;;;5039519;28;20057;-51
2021/05/05 07:53:05;;;;;;;3.30;1.60;;;;;;;;;;5041395;28;20358;-49
2021/05/05 07:55:32;;;;;;;4.95;1.60;;;;;;;;;;5041328;28;20029;-52
2021/05/05 07:57:58;;;;;;;4.78;1.60;;;;;;;;;;5038449;28;20389;-53
2021/05/05 08:00:24;;;;;;;5.70;1.60;;;;;;;;;;5045672;28;20029;-50
2021/05/05 08:02:51;;;;;;;2.75;1.30;;;;;;;;;;5051532;28;20128;-53
2021/05/05 08:05:17;;;;;;;4.75;1.70;;;;;;;;;;5051896;28;20017;-54
2021/05/05 08:07:43;;;;;;;5.35;1.83;;;;;;;;;;5033565;28;20033;-52
2021/05/05 08:10:10;;;;;;;4.38;1.98;;;;;;;;;;5052146;28;20079;-54
2021/05/05 08:12:36;;;;;;;4.95;1.88;;;;;;;;;;5052004;28;20033;-50
2021/05/05 08:15:03;;;;;;;6.75;1.80;;;;;;;;;;5052016;28;20032;-48
2021/05/05 08:17:29;;;;;;;4.60;2.00;;;;;;;;;;5051562;28;20430;-50
2021/05/05 08:19:55;;;;;;;4.30;1.52;;;;;;;;;;5051702;28;20029;-50
2021/05/05 08:22:21;;;;;;;6.28;1.70;;;;;;;;;;5051509;28;20372;-53
2021/05/05 08:24:47;;;;;;;5.88;1.80;;;;;;;;;;5051478;28;20028;-52
2021/05/05 08:27:13;;;;;;;4.30;1.50;;;;;;;;;;5051549;28;20044;-49
2021/05/05 08:29:39;;;;;;;3.55;1.60;;;;;;;;;;5051905;28;20096;-50
2021/05/05 08:32:06;;;;;;;5.07;1.98;;;;;;;;;;5051818;28;20480;-48
2021/05/05 08:34:32;;;;;;;4.72;1.70;;;;;;;;;;5051206;28;20017;-48
2021/05/05 08:36:58;;;;;;;4.78;1.55;;;;;;;;;;5050864;28;20021;-49
2021/05/05 08:39:25;;;;;;;2.80;1.30;;;;;;;;;;5051303;28;20488;-50
2021/05/05 08:41:52;;;;;;;3.58;1.67;;;;;;;;;;5051756;28;20099;-54
2021/05/05 08:44:19;;;;;;;3.30;1.40;;;;;;;;;;5051317;28;20021;-48
2021/05/05 08:46:46;;;;;;;10.13;1.20;;;;;;;;;;5051292;28;20530;-49
2021/05/05 08:49:13;;;;;;;3.03;1.20;;;;;;;;;;5051232;28;20025;-52
2021/05/05 08:51:43;;;;;;;3.42;1.25;;;;;;;;;;5051318;28;20053;-56
2021/05/05 08:54:09;;;;;;;4.32;1.58;;;;;;;;;;5051660;28;20025;-50
2021/05/05 08:56:36;;;;;;;3.70;1.52;;;;;;;;;;5051456;28;20013;-50
2021/05/05 08:59:23;;;;;;;4.85;1.50;;;;;;;;;;5051578;28;20048;-53
2021/05/05 09:01:50;;;;;;;3.75;1.40;;;;;;;;;;5051585;28;20053;-58
2021/05/05 09:04:16;;;;;;;4.75;1.83;;;;;;;;;;5051091;28;20103;-54
2021/05/05 09:06:50;;;;;;;4.57;1.50;;;;;;;;;;5050991;28;20056;-55
2021/05/05 09:09:32;;;;;;;5.53;1.70;;;;;;;;;;5052624;28;20017;-58
2021/05/05 09:11:59;;;;;;;4.35;1.50;;;;;;;;;;5054736;28;20028;-58
2021/05/05 09:14:27;;;;;;;3.28;1.40;;;;;;;;;;5054357;28;20417;-58
2021/05/05 09:16:54;;;;;;;2.28;1.23;;;;;;;;;;5052568;28;20033;-59
2021/05/05 09:19:20;;;;;;;4.47;1.60;;;;;;;;;;5053730;28;20083;-59
2021/05/05 09:21:52;;;;;;;4.05;1.38;;;;;;;;;;5054875;28;20021;-59
2021/05/05 09:24:18;;;;;;;3.40;1.60;;;;;;;;;;5054710;28;20029;-57
2021/05/05 09:26:45;;;;;;;4.85;1.40;;;;;;;;;;5054863;28;20032;-56
2021/05/05 09:29:11;;;;;;;3.85;1.80;;;;;;;;;;5054667;28;20025;-55
2021/05/05 09:31:38;;;;;;;5.40;1.17;;;;;;;;;;5054508;28;20056;-54
2021/05/05 09:34:07;;;;;;;3.08;1.40;;;;;;;;;;5054275;28;20029;-60
2021/05/05 09:36:34;;;;;;;4.40;1.27;;;;;;;;;;5054893;28;20052;-59
2021/05/05 09:39:02;;;;;;;5.35;1.40;;;;;;;;;;5054435;28;20111;-60
2021/05/05 09:41:32;;;;;;;7.65;1.40;;;;;;;;;;5054360;28;20027;-59
2021/05/05 09:44:03;;;;;;;3.67;1.20;;;;;;;;;;5054422;28;20472;-59
2021/05/05 09:46:43;;;;;;;3.25;1.10;;;;;;;;;;5054463;28;20075;-56
2021/05/05 09:49:22;;;;;;;3.88;1.60;;;;;;;;;;5054361;28;20049;-58
2021/05/05 09:51:49;;;;;;;4.28;1.38;;;;;;;;;;5054113;28;20151;-57
2021/05/05 09:54:22;;;;;;;3.47;1.27;;;;;;;;;;5054292;28;20508;-58
2021/05/05 09:56:49;;;;;;;3.20;1.27;;;;;;;;;;5053909;28;20029;-59
2021/05/05 09:59:15;;;;;;;4.55;1.30;;;;;;;;;;5054129;28;20114;-59
2021/05/05 10:01:41;;;;;;;4.88;1.05;;;;;;;;;;5054532;28;20079;-60
2021/05/05 10:04:07;;;;;;;4.80;1.63;;;;;;;;;;5053214;28;20116;-59
2021/05/05 10:06:37;;;;;;;3.45;1.30;;;;;;;;;;5053532;28;20107;-59
2021/05/05 10:09:08;;;;;;;2.80;0.93;;;;;;;;;;5053631;28;20492;-58
2021/05/05 10:11:35;;;;;;;2.75;1.10;;;;;;;;;;5053951;28;20029;-54
2021/05/05 10:14:03;;;;;;;2.55;1.15;;;;;;;;;;5053745;28;20111;-58
2021/05/05 10:16:32;;;;;;;6.15;1.80;;;;;;;;;;5035829;28;20049;-54
2021/05/05 10:18:58;;;;;;;3.25;1.30;;;;;;;;;;5053747;28;20124;-58
2021/05/05 10:21:26;;;;;;;3.45;1.15;;;;;;;;;;5052690;28;20025;-55
2021/05/05 10:24:05;;;;;;;2.72;1.00;;;;;;;;;;5053334;28;20025;-58
2021/05/05 10:26:32;;;;;;;4.00;1.20;;;;;;;;;;5035464;28;20025;-50
2021/05/05 10:28:58;;;;;;;6.00;1.20;;;;;;;;;;5053515;28;20052;-57
2021/05/05 10:31:27;;;;;;;4.63;1.60;;;;;;;;;;5052853;28;20040;-50
2021/05/05 10:33:54;;;;;;;3.10;1.33;;;;;;;;;;5053088;28;20025;-45
2021/05/05 10:36:29;;;;;;;2.80;1.02;;;;;;;;;;5053349;28;20064;-50
2021/05/05 10:38:56;;;;;;;3.67;1.10;;;;;;;;;;5053114;28;20128;-56
2021/05/05 10:41:22;;;;;;;3.33;1.42;;;;;;;;;;5053243;28;20055;-52
2021/05/05 10:43:59;;;;;;;3.75;1.15;;;;;;;;;;5052982;28;20041;-56
2021/05/05 10:46:27;;;;;;;4.07;0.93;;;;;;;;;;5053234;28;20037;-51
2021/05/05 10:49:04;;;;;;;3.47;1.08;;;;;;;;;;5052933;28;20047;-49
2021/05/05 10:51:59;;;;;;;2.20;1.17;;;;;;;;;;5053163;28;20098;-57
2021/05/05 10:54:45;;;;;;;2.55;1.05;;;;;;;;;;5036024;28;20029;-57
2021/05/05 10:57:12;;;;;;;2.85;1.10;;;;;;;;;;5052427;28;20025;-56
2021/05/05 11:00:06;;;;;;;6.38;1.45;;;;;;;;;;5052507;28;20032;-55
2021/05/05 11:02:38;;;;;;;3.05;1.15;;;;;;;;;;5052244;28;20045;-58
2021/05/05 11:05:08;;;;;;;6.60;1.20;;;;;;;;;;5052768;28;20021;-60
2021/05/05 11:07:46;;;;;;;2.80;0.88;;;;;;;;;;5052357;28;20032;-57
2021/05/05 11:10:33;;;;;;;3.22;1.05;;;;;;;;;;5052845;28;20025;-61
2021/05/05 11:13:02;;;;;;;5.00;1.20;;;;;;;;;;5052527;28;20017;-59
2021/05/05 11:15:44;;;;;;;4.18;1.27;;;;;;;;;;5052382;28;20116;-60
2021/05/05 11:18:35;;;;;;;2.45;0.90;;;;;;;;;;5052513;28;20412;-60
2021/05/05 11:21:08;;;;;;;3.50;1.00;;;;;;;;;;5052391;28;20033;-53
2021/05/05 11:23:34;;;;;;;2.67;1.08;;;;;;;;;;5052204;28;20024;-53
2021/05/05 11:26:16;;;;;;;3.03;0.95;;;;;;;;;;5052231;28;20508;-60
2021/05/05 11:29:20;;;;;;;4.10;1.50;;;;;;;;;;5052163;28;20067;-49
2021/05/05 11:31:49;;;;;;;4.05;1.20;;;;;;;;;;4971261;28;20037;-60
2021/05/05 11:34:24;;;;;;;4.28;0.98;;;;;;;;;;4971251;28;20480;-56
2021/05/05 11:36:56;;;;;;;8.50;1.38;;;;;;;;;;5016186;28;20120;-59
2021/05/05 11:39:27;;;;;;;3.53;1.08;;;;;;;;;;5051847;28;20066;-52
2021/05/05 11:41:56;;;;;;;2.67;0.82;;;;;;;;;;5052333;28;20419;-53
2021/05/05 11:44:36;;;;;;;3.90;1.10;;;;;;;;;;5052493;28;20075;-60
2021/05/05 11:47:04;;;;;;;3.58;1.20;;;;;;;;;;5051973;28;20028;-59
2021/05/05 11:49:34;;;;;;;5.20;1.13;;;;;;;;;;5052163;28;20538;-46
2021/05/05 11:52:18;;;;;;;3.67;1.00;;;;;;;;;;5051970;28;20017;-57
2021/05/05 11:54:44;;;;;;;4.68;1.23;;;;;;;;;;5052043;28;20033;-46
2021/05/05 11:57:10;;;;;;;4.68;1.38;;;;;;;;;;5052047;28;20032;-55
2021/05/05 11:59:36;;;;;;;2.35;1.10;;;;;;;;;;5051752;28;20155;-58
2021/05/05 12:02:04;;;;;;;3.15;1.08;;;;;;;;;;5052001;28;20033;-56
2021/05/05 12:04:36;;;;;;;12.77;1.40;;;;;;;;;;5051622;28;20054;-59
2021/05/05 12:07:02;;;;;;;5.22;1.10;;;;;;;;;;5051897;28;20532;-58
2021/05/05 12:09:30;;;;;;;6.03;1.23;;;;;;;;;;5051364;28;20104;-59
2021/05/05 12:12:09;;;;;;;7.28;1.15;;;;;;;;;;5051747;28;20033;-60
2021/05/05 12:14:35;;;;;;;6.95;1.05;;;;;;;;;;5051655;28;20035;-59
2021/05/05 12:19:43;;;;;;;;;;;;;;;;;;5052428;28;20175;-59
2021/05/05 12:22:13;;;;;;;4.13;1.17;;;;;;;;;;5051743;28;19943;-59
2021/05/05 12:24:39;;;;;;;3.95;1.20;;;;;;;;;;5052759;28;20033;-59
2021/05/05 12:27:08;;;;;;;6.60;1.73;;;;;;;;;;5051643;28;20039;-61
2021/05/05 12:29:35;;;;;;;3.47;1.30;;;;;;;;;;5051680;28;20115;-51
2021/05/05 12:32:03;;;;;;;3.92;1.10;;;;;;;;;;5051512;28;20021;-60
2021/05/05 12:34:29;;;;;;;3.80;1.08;;;;;;;;;;5051621;28;20091;-58
2021/05/05 12:36:56;;;;;;;2.67;1.00;;;;;;;;;;5051772;28;20029;-61
2021/05/05 12:39:23;;;;;;;3.63;1.35;;;;;;;;;;5051691;28;20036;-60
2021/05/05 12:41:51;;;;;;;7.03;1.20;;;;;;;;;;5051655;28;20032;-52
2021/05/05 12:44:18;;;;;;;3.80;1.20;;;;;;;;;;5053410;28;20100;-60
2021/05/05 12:47:08;;;;;;;4.25;1.23;;;;;;;;;;5055538;28;20064;-56
2021/05/05 12:49:35;;;;;;;3.75;1.33;;;;;;;;;;5055742;28;20029;-47
2021/05/05 12:52:02;;;;;;;3.03;1.00;;;;;;;;;;5055430;28;20414;-57
2021/05/05 12:54:37;;;;;;;3.95;1.10;;;;;;;;;;5055161;28;20520;-58
2021/05/05 12:57:04;;;;;;;4.75;1.30;;;;;;;;;;5054820;28;20033;-56
2021/05/05 12:59:33;;;;;;;4.18;1.38;;;;;;;;;;5055508;28;20048;-50
2021/05/05 13:02:03;;;;;;;4.22;1.13;;;;;;;;;;5055227;28;20029;-58
2021/05/05 13:04:39;;;;;;;4.82;1.58;;;;;;;;;;5054866;28;20045;-56
2021/05/05 13:07:06;;;;;;;3.85;1.50;;;;;;;;;;5055098;28;20025;-59
2021/05/05 13:09:34;;;;;;;3.17;1.00;;;;;;;;;;5055038;28;20487;-59
2021/05/05 13:12:30;;;;;;;4.35;1.10;;;;;;;;;;5055151;28;20033;-57
2021/05/05 13:15:13;;;;;;;1.77;0.90;;;;;;;;;;5055044;28;20033;-59
2021/05/05 13:17:55;;;;;;;5.35;1.45;;;;;;;;;;5054817;28;20110;-61
2021/05/05 13:20:46;;;;;;;5.97;1.20;;;;;;;;;;5054920;28;20104;-46
2021/05/05 13:29:37;;;;;;;3.05;1.00;;;;;;;;;;5054090;28;20084;-61
2021/05/05 13:31:47;;;;;;;6.30;1.00;;;;;;;;;;5054652;28;20044;-52
2021/05/05 13:34:14;;;;;;;5.90;1.27;;;;;;;;;;5054626;28;20035;-57
2021/05/05 13:36:49;;;;;;;3.60;1.02;;;;;;;;;;5054402;28;20057;-50
2021/05/05 13:39:16;;;;;;;7.18;1.10;;;;;;;;;;5054194;28;20045;-59
2021/05/05 13:41:44;;;;;;;7.15;1.40;;;;;;;;;;5054356;28;20021;-59
2021/05/05 13:44:17;;;;;;;3.53;1.50;;;;;;;;;;5054314;28;20587;-58
2021/05/05 13:49:31;;;;;;;4.80;1.20;;;;;;;;;;5054353;28;20033;-59
2021/05/05 13:52:01;;;;;;;5.15;1.40;;;;;;;;;;5036718;28;20029;-61
2021/05/05 13:54:27;;;;;;;4.53;2.00;;;;;;;;;;5053870;28;20108;-61
2021/05/05 13:56:53;;;;;;;3.63;1.23;;;;;;;;;;5053257;28;20104;-57
2021/05/05 13:59:20;;;;;;;2.15;1.00;;;;;;;;;;5054236;28;20077;-59
2021/05/05 14:01:46;;;;;;;6.55;1.13;;;;;;;;;;5054098;28;20029;-61
2021/05/05 14:04:12;;;;;;;4.38;1.40;;;;;;;;;;5053756;28;20056;-59
2021/05/05 14:06:43;;;;;;;5.35;1.30;;;;;;;;;;5053870;28;20033;-59
2021/05/05 14:09:09;;;;;;;5.60;1.60;;;;;;;;;;5053909;28;20468;-51
2021/05/05 14:11:35;;;;;;;4.22;1.52;;;;;;;;;;5053869;28;20036;-58
2021/05/05 14:14:01;;;;;;;4.10;1.25;;;;;;;;;;5053953;28;20021;-56
2021/05/05 14:16:27;;;;;;;8.27;2.03;;;;;;;;;;5053809;28;20452;-48
2021/05/05 14:18:54;;;;;;;5.18;1.77;;;;;;;;;;5053888;28;20037;-51
2021/05/05 14:21:20;;;;;;;5.47;1.52;;;;;;;;;;5053277;28;20032;-57
2021/05/05 14:23:46;;;;;;;3.92;1.45;;;;;;;;;;5053376;28;20029;-57
2021/05/05 14:26:12;;;;;;;19.33;2.35;;;;;;;;;;5053453;28;20017;-59
2021/05/05 14:28:39;;;;;;;4.72;1.27;;;;;;;;;;5053631;28;20422;-56
2021/05/05 14:31:10;;;;;;;3.30;1.50;;;;;;;;;;5053379;28;20025;-59
2021/05/05 14:33:36;;;;;;;5.43;1.40;;;;;;;;;;5053372;28;20106;-56
2021/05/05 14:36:03;;;;;;;4.53;1.48;;;;;;;;;;5053470;28;20036;-58
2021/05/05 14:38:33;;;;;;;3.10;1.52;;;;;;;;;;5053343;28;20029;-53
2021/05/05 14:41:03;;;;;;;3.22;1.15;;;;;;;;;;5052740;28;20033;-53
2021/05/05 14:43:34;;;;;;;6.22;1.40;;;;;;;;;;5053543;28;20037;-56
2021/05/05 14:46:11;;;;;;;4.85;1.45;;;;;;;;;;5053311;28;20082;-59
2021/05/05 14:48:38;;;;;;;3.72;1.20;;;;;;;;;;5053154;28;20027;-56
2021/05/05 14:51:04;;;;;;;5.25;1.40;;;;;;;;;;5053055;28;20084;-51
2021/05/05 14:53:30;;;;;;;3.53;1.30;;;;;;;;;;5053086;28;20029;-58
2021/05/05 14:55:57;;;;;;;4.40;1.40;;;;;;;;;;5053114;28;20143;-50
2021/05/05 14:58:33;;;;;;;3.33;1.38;;;;;;;;;;5052897;28;20040;-55
2021/05/05 15:00:59;;;;;;;7.32;1.58;;;;;;;;;;5052953;28;20025;-53
2021/05/05 15:03:29;;;;;;;5.97;1.58;;;;;;;;;;5052789;28;20061;-48
2021/05/05 15:05:57;;;;;;;5.40;1.45;;;;;;;;;;5053158;28;20380;-55
2021/05/05 15:08:29;;;;;;;6.88;1.67;;;;;;;;;;5052447;28;20064;-53
2021/05/05 15:36:54;;;;;;;6.97;1.50;;;;;;;;;;5052466;28;20033;-55